Time;durP1;ratioP1;P1;durP2;ratioP2;P2;SDS_P1;SDS_P2;PMS_P1;PMS_P2;Temp;Humidity;BMP_temperature;BMP_pressure;BME280_temperature;BME280_humidity;BME280_pressure;Samples;Min_cycle;Max_cycle;Signal;HPM_P1;HPM_P2
2023/05/15 00:00:22;;;;;;;;;25.33;25.33;;;;;12.85;100.00;98949.94;6283426;20;3597121;-61
2023/05/15 00:02:51;;;;;;;;;29.67;26.67;;;;;12.83;100.00;98945.66;6285122;20;3598164;-61
2023/05/15 00:05:20;;;;;;;;;25.67;25.67;;;;;12.86;100.00;98954.31;6317851;20;3596104;-61
2023/05/15 00:07:48;;;;;;;;;27.00;24.33;;;;;12.76;100.00;98934.50;6286719;20;3597141;-62
2023/05/15 00:10:16;;;;;;;;;28.33;26.67;;;;;12.83;100.00;98946.50;6282097;20;3608753;-61
2023/05/15 00:12:45;;;;;;;;;20.50;20.00;;;;;12.86;100.00;98934.63;6280366;20;2839893;-61
2023/05/15 00:15:13;;;;;;;;;29.00;28.00;;;;;12.87;100.00;98931.78;6282521;20;3599196;-62
2023/05/15 00:17:41;;;;;;;;;21.00;21.00;;;;;12.84;100.00;98934.72;6281742;20;2838930;-62
2023/05/15 00:20:11;;;;;;;;;28.67;27.67;;;;;12.76;100.00;98923.72;6283145;20;3605469;-62
2023/05/15 00:22:39;;;;;;;;;30.33;30.00;;;;;12.87;100.00;98915.59;6318135;20;3608607;-61
2023/05/15 00:25:08;;;;;;;;;29.67;28.00;;;;;12.93;100.00;98925.91;6284832;20;3600287;-62
2023/05/15 00:27:37;;;;;;;;;30.33;29.33;;;;;12.89;100.00;98921.72;6282588;20;3599225;-61
2023/05/15 00:30:06;;;;;;;;;31.67;27.00;;;;;12.84;100.00;98921.25;6318658;20;3603471;-62
2023/05/15 00:32:34;;;;;;;;;30.67;30.00;;;;;12.92;100.00;98917.94;6283778;20;3588805;-61
2023/05/15 00:35:04;;;;;;;;;30.00;28.00;;;;;12.88;100.00;98913.78;6280356;20;3591036;-62
2023/05/15 00:37:32;;;;;;;;;27.33;27.33;;;;;12.98;100.00;98917.44;6291006;20;3593103;-61
2023/05/15 00:40:00;;;;;;;;;31.00;29.33;;;;;12.91;100.00;98921.63;6286364;20;3595028;-61
2023/05/15 00:42:30;;;;;;;;;29.00;26.00;;;;;12.92;100.00;98918.78;6279752;20;3598207;-61
2023/05/15 00:45:01;;;;;;;;;25.33;25.33;;;;;13.08;100.00;98922.88;6310714;20;3596258;-61
2023/05/15 00:47:30;;;;;;;;;28.67;28.67;;;;;12.92;100.00;98918.78;6317617;20;3607577;-62
2023/05/15 00:49:59;;;;;;;;;27.67;27.67;;;;;12.95;100.00;98918.53;6282212;20;3588543;-61
2023/05/15 00:52:29;;;;;;;;;29.00;27.67;;;;;12.94;100.00;98921.34;6282642;20;3592954;-62
2023/05/15 00:54:57;;;;;;;;;33.00;30.00;;;;;12.79;100.00;98918.09;6314895;20;3589797;-61
2023/05/15 00:57:26;;;;;;;;;28.67;27.00;;;;;12.87;100.00;98917.44;6283550;20;3604515;-61
2023/05/15 00:59:56;;;;;;;;;29.33;28.67;;;;;12.84;100.00;98923.94;6281543;20;3610656;-62
2023/05/15 01:02:24;;;;;;;;;25.33;23.67;;;;;12.88;100.00;98921.88;6282461;20;3591923;-62
2023/05/15 01:04:52;;;;;;;;;32.00;29.00;;;;;12.87;100.00;98910.22;6282929;20;3594117;-62
2023/05/15 01:07:21;;;;;;;;;27.67;26.00;;;;;12.99;100.00;98913.75;6283569;20;3602756;-62
2023/05/15 01:09:52;;;;;;;;;27.33;25.67;;;;;12.88;100.00;98911.94;6284396;20;2857692;-62
2023/05/15 01:12:25;;;;;;;;;33.67;29.33;;;;;12.94;100.00;98908.72;6308879;20;3603487;-62
2023/05/15 01:14:53;;;;;;;;;25.00;24.33;;;;;12.95;100.00;98907.75;6281366;20;3584759;-62
2023/05/15 01:17:23;;;;;;;;;29.00;27.67;;;;;13.04;100.00;98902.59;6275488;20;3594077;-62
2023/05/15 01:19:51;;;;;;;;;25.00;21.00;;;;;12.86;100.00;98892.34;6316463;20;3578388;-62
2023/05/15 01:23:13;;;;;;;;;30.00;27.67;;;;;13.03;100.00;98887.38;6278472;20;2846270;-62
2023/05/15 01:25:46;;;;;;;;;25.33;25.33;;;;;13.01;100.00;98879.44;6309352;20;3589962;-62
2023/05/15 01:28:22;;;;;;;;;27.67;26.33;;;;;12.99;100.00;98875.16;6276171;20;2852457;-61
2023/05/15 01:30:55;;;;;;;;;27.00;26.00;;;;;12.86;100.00;98869.94;6310167;20;3584635;-62
2023/05/15 01:33:29;;;;;;;;;29.33;25.33;;;;;12.86;100.00;98881.59;6282592;20;3592982;-62
2023/05/15 01:36:17;;;;;;;;;28.67;26.00;;;;;12.85;100.00;98889.78;6311214;20;3600280;-61
2023/05/15 01:38:50;;;;;;;;;31.00;30.00;;;;;12.82;100.00;98884.66;6282066;20;3582565;-62
2023/05/15 01:41:29;;;;;;;;;29.00;27.33;;;;;12.88;100.00;98874.22;6276136;20;3597416;-62
2023/05/15 01:44:16;;;;;;;;;30.67;30.00;;;;;12.89;100.00;98862.47;6311294;20;3587876;-61
2023/05/15 01:46:50;;;;;;;;;30.67;28.67;;;;;12.80;100.00;98876.72;6276408;20;2852419;-62
2023/05/15 01:49:25;;;;;;;;;32.00;31.33;;;;;12.84;100.00;98878.16;6313097;20;3591340;-61
2023/05/15 01:52:33;;;;;;;;;31.00;29.00;;;;;12.79;100.00;98880.38;6278310;20;3587760;-62
2023/05/15 01:55:05;;;;;;;;;31.00;29.00;;;;;12.79;100.00;98874.13;6277135;20;3590025;-62
2023/05/15 01:57:34;;;;;;;;;29.00;28.33;;;;;12.71;100.00;98882.84;6278683;20;3597125;-62
2023/05/15 02:00:04;;;;;;;;;30.33;28.33;;;;;12.71;100.00;98888.25;6279213;20;3605418;-61
2023/05/15 02:02:32;;;;;;;;;34.00;29.67;;;;;12.64;100.00;98887.06;6281941;20;3603517;-62
2023/05/15 02:05:02;;;;;;;;;35.67;30.67;;;;;12.69;100.00;98887.50;6279088;20;3605655;-62
2023/05/15 02:07:32;;;;;;;;;31.67;27.67;;;;;12.70;100.00;98878.47;6273631;20;3610678;-62
2023/05/15 02:10:02;;;;;;;;;28.67;26.00;;;;;12.77;100.00;98868.03;6309684;20;3585756;-62
2023/05/15 02:12:31;;;;;;;;;29.67;27.67;;;;;12.81;100.00;98862.25;6277519;20;3597155;-62
2023/05/15 02:15:03;;;;;;;;;31.67;30.00;;;;;12.76;100.00;98863.63;6279338;20;3582556;-62
2023/05/15 02:17:31;;;;;;;;;27.00;27.00;;;;;12.78;100.00;98862.50;6279022;20;3602351;-62
2023/05/15 02:19:59;;;;;;;;;28.67;27.00;;;;;12.76;100.00;98859.09;6283171;20;3593048;-62
2023/05/15 02:22:27;;;;;;;;;32.67;30.67;;;;;12.79;100.00;98860.66;6279952;20;3595508;-62
2023/05/15 02:24:55;;;;;;;;;30.33;30.00;;;;;12.69;100.00;98860.56;6281353;20;3601312;-62
2023/05/15 02:27:27;;;;;;;;;26.33;25.33;;;;;12.60;100.00;98864.91;6281199;20;3585755;-62
2023/05/15 02:30:31;;;;;;;;;31.33;30.00;;;;;12.65;100.00;98878.84;6279144;20;3570083;-62
2023/05/15 02:33:36;;;;;;;;;32.33;29.00;;;;;12.77;100.00;98876.97;6272353;20;3596195;-62
2023/05/15 02:36:08;;;;;;;;;31.67;29.33;;;;;12.66;100.00;98869.75;6308277;20;3603371;-62
2023/05/15 02:38:55;;;;;;;;;27.33;26.67;;;;;12.59;100.00;98862.34;6282805;20;3602423;-62
2023/05/15 02:41:24;;;;;;;;;28.67;28.67;;;;;12.52;100.00;98862.84;6278211;20;3597122;-63
2023/05/15 02:43:55;;;;;;;;;35.33;30.00;;;;;12.55;100.00;98877.03;6278245;20;2837745;-62
2023/05/15 02:46:23;;;;;;;;;29.33;28.33;;;;;12.59;100.00;98884.75;6311989;20;3601285;-62
2023/05/15 02:48:54;;;;;;;;;30.67;30.33;;;;;12.68;100.00;98883.13;6278938;20;3596214;-62
2023/05/15 02:51:23;;;;;;;;;34.00;30.33;;;;;12.52;100.00;98879.00;6277456;20;3589994;-62
2023/05/15 02:53:51;;;;;;;;;29.33;27.33;;;;;12.56;100.00;98881.44;6313871;20;3597128;-62
2023/05/15 02:56:20;;;;;;;;;29.67;27.67;;;;;12.64;100.00;98877.13;6277803;20;3602368;-62
2023/05/15 02:58:48;;;;;;;;;38.00;30.33;;;;;12.79;100.00;98872.28;6279213;20;3598212;-62
2023/05/15 03:01:17;;;;;;;;;28.00;25.00;;;;;12.62;100.00;98868.31;6278812;20;3596159;-62
2023/05/15 03:03:46;;;;;;;;;36.67;31.33;;;;;12.47;100.00;98856.97;6309387;20;3597659;-62
2023/05/15 03:06:15;;;;;;;;;30.67;28.67;;;;;12.69;100.00;98865.97;6277671;20;3591937;-62
2023/05/15 03:08:43;;;;;;;;;33.67;31.67;;;;;12.70;100.00;98848.84;6282855;20;3597167;-62
2023/05/15 03:11:12;;;;;;;;;33.67;30.67;;;;;12.81;100.00;98854.16;6279578;20;3588785;-62
2023/05/15 03:13:42;;;;;;;;;26.33;25.00;;;;;12.77;100.00;98850.03;6276450;20;3629544;-62
2023/05/15 03:16:10;;;;;;;;;33.00;30.00;;;;;12.71;100.00;98840.63;6310517;20;3589967;-62
2023/05/15 03:18:38;;;;;;;;;31.33;30.00;;;;;12.70;100.00;98840.75;6283514;20;3582599;-62
2023/05/15 03:21:07;;;;;;;;;32.33;28.33;;;;;12.63;100.00;98842.25;6282205;20;2845097;-62
2023/05/15 03:23:35;;;;;;;;;29.00;28.33;;;;;12.57;100.00;98832.84;6316619;20;3588800;-62
2023/05/15 03:26:05;;;;;;;;;37.67;31.00;;;;;12.58;100.00;98834.53;6284666;20;3589933;-62
2023/05/15 03:28:33;;;;;;;;;32.67;30.00;;;;;12.71;100.00;98842.47;6282640;20;3582515;-62
2023/05/15 03:31:03;;;;;;;;;31.33;29.67;;;;;12.57;100.00;98832.84;6285464;20;3583702;-62
2023/05/15 03:33:31;;;;;;;;;31.67;30.33;;;;;12.80;100.00;98838.16;6279257;20;3592961;-62
2023/05/15 03:36:00;;;;;;;;;37.33;31.33;;;;;12.72;100.00;98842.34;6283034;20;3604428;-62
2023/05/15 03:38:28;;;;;;;;;34.00;31.00;;;;;12.77;100.00;98835.69;6316986;20;3588923;-62
2023/05/15 03:40:57;;;;;;;;;31.00;30.00;;;;;12.71;100.00;98831.69;6283663;20;3570307;-61
2023/05/15 03:43:25;;;;;;;;;25.00;25.00;;;;;12.84;100.00;98808.09;6281960;20;2852349;-62
2023/05/15 03:45:54;;;;;;;;;33.67;31.33;;;;;12.79;100.00;98813.03;6283833;20;3592975;-62
2023/05/15 03:48:23;;;;;;;;;39.67;32.00;;;;;13.03;100.00;98811.94;6283102;20;3611723;-62
2023/05/15 03:50:51;;;;;;;;;30.67;29.67;;;;;12.93;100.00;98799.25;6318066;20;3586824;-62
2023/05/15 03:53:20;;;;;;;;;33.00;30.33;;;;;12.84;100.00;98800.03;6281411;20;2852512;-62
2023/05/15 03:55:49;;;;;;;;;32.00;30.67;;;;;12.87;100.00;98807.84;6315081;20;3593092;-62
2023/05/15 03:58:18;;;;;;;;;29.67;29.67;;;;;13.00;100.00;98801.41;6281106;20;2848251;-62
2023/05/15 04:00:46;;;;;;;;;31.67;30.67;;;;;13.04;100.00;98797.50;6315802;20;3591918;-62
2023/05/15 04:03:14;;;;;;;;;30.33;29.67;;;;;13.17;100.00;98804.38;6282079;20;3585697;-61
2023/05/15 04:05:42;;;;;;;;;33.67;32.00;;;;;13.12;100.00;98792.28;6283244;20;3579408;-61
2023/05/15 04:08:11;;;;;;;;;31.33;30.00;;;;;13.42;100.00;98801.41;6285649;20;3576321;-62
2023/05/15 04:10:39;;;;;;;;;37.33;33.00;;;;;13.35;100.00;98799.25;6286956;20;3600293;-62
2023/05/15 04:13:08;;;;;;;;;36.00;32.00;;;;;13.27;100.00;98803.59;6280832;20;3603593;-62
2023/05/15 04:15:37;;;;;;;;;34.67;32.00;;;;;13.31;100.00;98811.28;6314775;20;3599283;-61
2023/05/15 04:18:05;;;;;;;;;36.00;32.00;;;;;13.33;100.00;98816.56;6283943;20;3593055;-62
2023/05/15 04:20:34;;;;;;;;;33.67;32.00;;;;;13.22;100.00;98812.06;6277939;20;2860798;-61
2023/05/15 04:23:05;;;;;;;;;34.67;31.33;;;;;13.08;100.00;98813.25;6316518;20;3587870;-62
2023/05/15 04:25:34;;;;;;;;;31.50;30.50;;;;;13.18;100.00;98818.69;6280878;20;2851311;-61
2023/05/15 04:28:02;;;;;;;;;32.50;31.00;;;;;13.09;100.00;98812.28;6283753;20;2836731;-61
2023/05/15 04:30:30;;;;;;;;;32.00;30.33;;;;;13.11;100.00;98809.44;6283380;20;3589922;-62
2023/05/15 04:32:58;;;;;;;;;41.33;33.33;;;;;13.03;100.00;98811.94;6280879;20;3594095;-62
2023/05/15 04:35:27;;;;;;;;;33.50;30.00;;;;;13.16;100.00;98804.50;6280354;20;2841930;-62
2023/05/15 04:37:55;;;;;;;;;37.00;31.00;;;;;13.11;100.00;98798.66;6285523;20;3597533;-61
2023/05/15 04:40:23;;;;;;;;;35.67;32.67;;;;;13.16;100.00;98791.00;6285483;20;3596111;-61
2023/05/15 04:42:51;;;;;;;;;39.00;33.50;;;;;13.14;100.00;98788.47;6282633;20;2845085;-62
2023/05/15 04:45:20;;;;;;;;;41.33;35.67;;;;;13.18;100.00;98789.91;6283382;20;3580575;-61
2023/05/15 04:47:48;;;;;;;;;37.50;33.50;;;;;13.16;100.00;98777.53;6282299;20;2857606;-61
2023/05/15 04:50:16;;;;;;;;;39.00;32.00;;;;;13.12;100.00;98771.56;6282667;20;3615871;-61
2023/05/15 04:52:45;;;;;;;;;42.33;36.33;;;;;13.12;100.00;98773.41;6283234;20;2859710;-62
2023/05/15 04:55:13;;;;;;;;;45.67;38.33;;;;;13.21;100.00;98778.00;6313659;20;3605462;-62
2023/05/15 04:57:42;;;;;;;;;39.00;33.00;;;;;13.27;100.00;98792.81;6284513;20;3581476;-62
2023/05/15 05:00:11;;;;;;;;;39.50;35.50;;;;;13.17;100.00;98809.75;6278879;20;2840032;-62
2023/05/15 05:02:39;;;;;;;;;39.00;34.67;;;;;13.24;100.00;98815.47;6286429;20;3586765;-62
2023/05/15 05:05:08;;;;;;;;;41.00;35.50;;;;;13.23;100.00;98824.53;6279908;20;2858856;-62
2023/05/15 05:07:36;;;;;;;;;37.00;32.33;;;;;13.08;100.00;98831.25;6287876;20;3580481;-62
2023/05/15 05:10:06;;;;;;;;;46.67;36.00;;;;;13.17;100.00;98843.94;6280715;20;2869060;-61
2023/05/15 05:12:35;;;;;;;;;43.67;35.67;;;;;13.12;100.00;98840.78;6316960;20;3606895;-62
2023/05/15 05:15:04;;;;;;;;;45.00;37.50;;;;;13.12;100.00;98843.50;6277250;20;2853409;-62
2023/05/15 05:17:32;;;;;;;;;43.50;35.50;;;;;13.25;100.00;98844.16;6282787;20;2839852;-62
2023/05/15 05:20:00;;;;;;;;;46.00;38.33;;;;;13.34;100.00;98843.38;6285721;20;3593097;-62
2023/05/15 05:22:29;;;;;;;;;44.33;34.67;;;;;13.25;100.00;98849.53;6281294;20;2849379;-62
2023/05/15 05:24:57;;;;;;;;;43.00;36.00;;;;;13.29;100.00;98851.00;6316731;20;3602394;-62
2023/05/15 05:27:26;;;;;;;;;42.67;35.67;;;;;13.34;100.00;98861.41;6283829;20;3577359;-62
2023/05/15 05:29:54;;;;;;;;;41.50;35.00;;;;;13.33;100.00;98857.84;6276658;20;2845087;-62
2023/05/15 05:32:23;;;;;;;;;43.00;35.00;;;;;13.37;100.00;98843.09;6281662;20;2842959;-62
2023/05/15 05:34:52;;;;;;;;;45.67;38.00;;;;;13.32;100.00;98825.63;6279960;20;3599349;-62
2023/05/15 05:37:21;;;;;;;;;47.67;38.00;;;;;13.30;100.00;98835.69;6313819;20;2870217;-62
2023/05/15 05:39:49;;;;;;;;;44.67;36.00;;;;;13.25;100.00;98849.53;6316218;20;3595119;-62
2023/05/15 05:42:17;;;;;;;;;44.33;36.00;;;;;13.17;100.00;98873.59;6286081;20;3595074;-62
2023/05/15 05:44:45;;;;;;;;;49.50;39.00;;;;;13.22;100.00;98887.53;6280127;20;2848290;-62
2023/05/15 05:47:15;;;;;;;;;47.00;39.00;;;;;13.11;100.00;98898.38;6279583;20;3599292;-62
2023/05/15 05:49:46;;;;;;;;;47.67;37.00;;;;;13.23;100.00;98909.97;6316516;20;3600266;-62
2023/05/15 05:52:15;;;;;;;;;42.33;35.00;;;;;13.19;100.00;98903.94;6286458;20;3587747;-62
2023/05/15 05:54:45;;;;;;;;;44.00;36.50;;;;;13.25;100.00;98883.72;6278511;20;2843114;-62
2023/05/15 05:57:14;;;;;;;;;45.00;37.67;;;;;13.31;100.00;98875.16;6281292;20;3601308;-62
2023/05/15 05:59:42;;;;;;;;;44.67;37.67;;;;;13.57;100.00;98872.91;6314493;20;3601315;-62
2023/05/15 06:02:12;;;;;;;;;49.00;39.00;;;;;13.56;100.00;98873.84;6280574;20;3610732;-62
2023/05/15 06:04:40;;;;;;;;;48.00;40.00;;;;;13.49;100.00;98861.91;6314775;20;3602380;-62
2023/05/15 06:07:09;;;;;;;;;49.00;39.33;;;;;13.62;100.00;98857.16;6281565;20;3613876;-62
2023/05/15 06:09:37;;;;;;;;;47.00;39.00;;;;;13.71;100.00;98867.13;6314861;20;3591126;-62
2023/05/15 06:12:07;;;;;;;;;43.00;38.00;;;;;13.52;100.00;98872.44;6281276;20;2839896;-62
2023/05/15 06:14:36;;;;;;;;;50.00;39.67;;;;;13.36;100.00;98887.25;6275223;20;2879539;-63
2023/05/15 06:17:04;;;;;;;;;47.67;37.67;;;;;13.36;100.00;98892.63;6315598;20;3609793;-63
2023/05/15 06:19:33;;;;;;;;;43.67;36.00;;;;;13.41;100.00;98888.69;6282016;20;3584740;-63
2023/05/15 06:22:01;;;;;;;;;45.00;37.00;;;;;13.52;100.00;98889.47;6282316;20;2845146;-62
2023/05/15 06:24:30;;;;;;;;;48.00;39.33;;;;;13.51;100.00;98886.91;6279405;20;2864979;-63
2023/05/15 06:26:58;;;;;;;;;47.00;39.00;;;;;13.51;100.00;98903.09;6314835;20;3606490;-63
2023/05/15 06:29:27;;;;;;;;;45.33;38.67;;;;;13.60;100.00;98907.69;6283600;20;2848294;-63
2023/05/15 06:31:56;;;;;;;;;45.00;38.00;;;;;13.58;100.00;98912.34;6315471;20;2850318;-63
2023/05/15 06:34:25;;;;;;;;;44.00;37.00;;;;;13.52;100.00;98920.97;6271526;20;2856625;-63
2023/05/15 06:36:54;;;;;;;;;42.67;35.00;;;;;13.54;100.00;98930.66;6307753;20;2855529;-63
2023/05/15 06:39:22;;;;;;;;;47.67;39.00;;;;;13.52;100.00;98929.06;6317306;20;3608623;-63
2023/05/15 06:41:56;;;;;;;;;44.33;37.33;;;;;13.53;100.00;98911.88;6282977;20;2855620;-63
2023/05/15 06:44:30;;;;;;;;;47.33;38.00;;;;;13.53;100.00;98912.78;6313337;20;3590925;-63
2023/05/15 06:46:58;;;;;;;;;50.33;42.67;;;;;13.60;100.00;98915.78;6312721;20;3593140;-63
2023/05/15 06:49:27;;;;;;;;;47.33;38.00;;;;;13.70;100.00;98896.97;6279097;20;3601781;-63
2023/05/15 06:51:56;;;;;;;;;49.00;41.00;;;;;13.88;100.00;98899.91;6314606;20;3610719;-63
2023/05/15 06:54:25;;;;;;;;;46.67;37.67;;;;;13.82;100.00;98895.88;6283408;20;2851335;-63
2023/05/15 06:56:53;;;;;;;;;72.33;60.00;;;;;13.80;100.00;98887.91;6319584;20;3648189;-62
2023/05/15 06:59:22;;;;;;;;;49.67;40.67;;;;;13.80;100.00;98882.53;6282422;20;3608632;-62
2023/05/15 07:01:50;;;;;;;;;49.00;40.00;;;;;13.96;100.00;98891.97;6320757;20;3608722;-63
2023/05/15 07:04:18;;;;;;;;;45.00;39.00;;;;;14.00;100.00;98888.00;6283802;20;2845163;-63
2023/05/15 07:06:48;;;;;;;;;50.00;41.00;;;;;14.01;100.00;98882.47;6281016;20;3607803;-63
2023/05/15 07:09:16;;;;;;;;;56.00;42.50;;;;;13.97;100.00;98880.19;6321346;20;3631710;-63
2023/05/15 07:11:46;;;;;;;;;56.67;46.67;;;;;14.03;100.00;98885.03;6319547;20;3617020;-63
2023/05/15 07:14:14;;;;;;;;;49.67;42.33;;;;;14.34;100.00;98890.38;6318005;20;3603434;-63
2023/05/15 07:16:44;;;;;;;;;48.33;40.00;;;;;14.22;100.00;98887.81;6284453;20;3599283;-63
2023/05/15 07:19:15;;;;;;;;;51.67;40.67;;;;;14.05;100.00;98893.84;6320813;20;3610732;-63
2023/05/15 07:21:43;;;;;;;;;45.67;38.67;;;;;14.11;100.00;98887.88;6284342;20;3586722;-63
2023/05/15 07:24:12;;;;;;;;;49.67;41.00;;;;;13.94;100.00;98896.66;6282575;20;2845373;-63
2023/05/15 07:26:40;;;;;;;;;51.33;42.67;;;;;14.00;100.00;98890.69;6314801;20;3596117;-63
2023/05/15 07:29:25;;;;;;;;;52.33;41.67;;;;;13.98;100.00;98889.97;6286360;20;3609751;-62
2023/05/15 07:31:54;;;;;;;;;49.00;39.67;;;;;14.32;100.00;98904.00;6315008;20;3621093;-62
2023/05/15 07:34:22;;;;;;;;;49.67;41.00;;;;;14.63;100.00;98907.53;6318871;20;3626345;-63
2023/05/15 07:36:51;;;;;;;;;51.67;42.33;;;;;14.85;100.00;98905.56;6287401;20;3606582;-63
2023/05/15 07:39:20;;;;;;;;;50.00;40.33;;;;;15.02;100.00;98896.78;6284095;20;3604502;-63
2023/05/15 07:41:48;;;;;;;;;43.33;36.67;;;;;14.84;100.00;98893.06;6321858;20;3582549;-63
2023/05/15 07:44:17;;;;;;;;;45.00;37.33;;;;;14.63;100.00;98888.63;6279289;20;2851452;-63
2023/05/15 07:46:45;;;;;;;;;49.00;40.67;;;;;14.55;100.00;98884.94;6316882;20;3590914;-63
2023/05/15 07:49:14;;;;;;;;;46.00;38.00;;;;;14.55;100.00;98885.78;6285080;20;2847395;-63
2023/05/15 07:51:45;;;;;;;;;46.17;39.00;;;;;14.77;100.00;98898.19;6340373;20;3596208;-63
2023/05/15 07:54:13;;;;;;;;;45.00;37.00;;;;;14.85;100.00;98889.34;6317181;20;3587842;-63
2023/05/15 07:56:41;;;;;;;;;47.00;38.00;;;;;14.79;100.00;98887.22;6280648;20;3608846;-63
2023/05/15 07:59:09;;;;;;;;;62.00;49.00;;;;;14.89;100.00;98888.09;6282834;20;3624308;-63
2023/05/15 08:01:38;;;;;;;;;48.67;40.00;;;;;15.27;100.00;98905.28;6282519;20;3612933;-62
2023/05/15 08:04:08;;;;;;;;;43.33;35.33;;;;;15.00;100.00;98920.38;6313330;20;3581541;-61
2023/05/15 08:06:37;;;;;;;;;42.67;37.33;;;;;15.01;100.00;98921.22;6266376;20;2856627;-62
2023/05/15 08:09:05;;;;;;;;;43.67;36.00;;;;;14.83;100.00;98919.25;6318056;20;3579572;-62
2023/05/15 08:11:34;;;;;;;;;45.00;37.33;;;;;14.93;100.00;98930.09;6281950;20;3580511;-62
2023/05/15 08:14:03;;;;;;;;;44.50;36.50;;;;;15.11;100.00;98922.97;6279532;20;2848238;-62
2023/05/15 08:16:31;;;;;;;;;41.00;34.33;;;;;15.70;100.00;98922.94;6282578;20;3589870;-62
2023/05/15 08:19:03;;;;;;;;;44.33;38.00;;;;;16.35;100.00;98929.28;6287720;20;3585669;-63
2023/05/15 08:21:34;;;;;;;;;48.67;38.67;;;;;16.58;100.00;98934.28;6322472;20;3602360;-62
2023/05/15 08:24:04;;;;;;;;;42.00;37.67;;;;;16.36;100.00;98939.09;6284713;20;2850690;-62
2023/05/15 08:26:32;;;;;;;;;39.00;34.00;;;;;16.42;100.00;98924.94;6317488;20;3589906;-63
2023/05/15 08:29:00;;;;;;;;;45.33;38.00;;;;;16.41;100.00;98925.94;6281470;20;3571128;-63
2023/05/15 08:31:29;;;;;;;;;43.50;34.50;;;;;16.10;100.00;98919.09;6278718;20;2858770;-63
2023/05/15 08:33:57;;;;;;;;;40.50;34.00;;;;;16.18;100.00;98921.94;6312620;20;2851314;-63
2023/05/15 08:36:26;;;;;;;;;30.67;29.00;;;;;16.43;100.00;98921.25;6281193;20;2844134;-63
2023/05/15 08:38:54;;;;;;;;;39.00;33.67;;;;;16.37;100.00;98920.97;6317195;20;3582548;-63
2023/05/15 08:41:32;;;;;;;;;26.67;26.67;;;;;16.15;100.00;98922.22;6284937;20;3595115;-62
2023/05/15 08:44:09;;;;;;;;;47.00;39.00;;;;;16.34;100.00;98924.00;6281147;20;2852574;-63
2023/05/15 08:46:38;;;;;;;;;37.00;32.00;;;;;16.73;100.00;98937.34;6311446;20;3592004;-63
2023/05/15 08:49:20;;;;;;;;;36.71;31.86;;;;;16.79;100.00;98944.88;6309243;20;3587756;-64
2023/05/15 08:51:48;;;;;;;;;31.67;30.67;;;;;16.45;100.00;98931.91;6289112;20;3593979;-63
2023/05/15 08:54:17;;;;;;;;;35.25;32.00;;;;;16.53;100.00;98931.16;6286198;20;3610683;-63
2023/05/15 08:56:46;;;;;;;;;29.67;27.00;;;;;16.85;100.00;98928.88;6314597;20;3600280;-63
2023/05/15 08:59:14;;;;;;;;;30.00;27.67;;;;;17.00;100.00;98922.91;6284419;20;3598214;-62
2023/05/15 09:01:42;;;;;;;;;37.00;31.00;;;;;17.10;100.00;98929.09;6284596;20;3579456;-63
2023/05/15 09:04:11;;;;;;;;;36.33;30.00;;;;;17.46;100.00;98929.09;6287876;20;3622163;-63
2023/05/15 09:06:40;;;;;;;;;29.00;27.00;;;;;17.34;100.00;98926.59;6284525;20;3586854;-62
2023/05/15 09:09:12;;;;;;;;;29.00;25.00;;;;;17.46;98.98;98918.25;6284844;20;3586868;-63
2023/05/15 09:11:45;;;;;;;;;30.67;30.00;;;;;17.55;100.00;98928.16;6287949;20;3591937;-63
2023/05/15 09:14:13;;;;;;;;;29.00;27.67;;;;;18.02;98.39;98938.69;6285925;20;3606537;-63
2023/05/15 09:16:41;;;;;;;;;27.00;26.00;;;;;18.26;94.42;98937.97;6275150;20;3588221;-62
2023/05/15 09:19:11;;;;;;;;;26.00;23.33;;;;;18.08;96.28;98940.75;6281707;20;3580475;-62
2023/05/15 09:21:39;;;;;;;;;21.33;20.33;;;;;17.88;96.30;98955.59;6273134;20;3570059;-63
2023/05/15 09:24:20;;;;;;;;;22.00;21.67;;;;;17.72;96.83;98950.81;6279043;20;3570233;-62
2023/05/15 09:27:07;;;;;;;;;23.67;22.33;;;;;17.65;97.67;98956.06;6276084;20;2846315;-62
2023/05/15 09:29:37;;;;;;;;;21.00;21.00;;;;;17.67;98.28;98964.91;6318204;20;3562748;-62
2023/05/15 09:32:09;;;;;;;;;25.67;24.67;;;;;18.28;97.89;98967.72;6284416;20;3587871;-63
2023/05/15 09:34:41;;;;;;;;;18.00;16.67;;;;;18.02;95.69;98974.00;6280957;20;3558616;-62
2023/05/15 09:37:26;;;;;;;;;22.00;20.67;;;;;17.95;96.14;98973.78;6312137;20;3572138;-63
2023/05/15 09:39:55;;;;;;;;;19.67;18.00;;;;;17.85;97.14;98969.47;6280531;20;3569058;-62
2023/05/15 09:42:23;;;;;;;;;19.00;19.00;;;;;17.75;95.00;98961.41;6275858;20;2839893;-64
2023/05/15 09:44:51;;;;;;;;;19.00;19.00;;;;;18.48;94.63;98982.75;6282504;20;2842145;-63
2023/05/15 09:47:20;;;;;;;;;21.00;20.00;;;;;18.24;94.40;98982.63;6281569;20;2843117;-62
2023/05/15 09:49:48;;;;;;;;;15.00;14.00;;;;;18.52;95.03;98975.13;6289909;20;2494010;-63
2023/05/15 09:52:18;;;;;;;;;21.00;18.00;;;;;18.78;94.89;98980.56;6283903;20;2839880;-63
2023/05/15 09:54:46;;;;;;;;;16.00;15.33;;;;;18.68;89.92;98982.50;6310163;20;3546298;-63
2023/05/15 09:57:22;;;;;;;;;17.33;17.33;;;;;18.52;93.57;98977.84;6283452;20;3561718;-62
2023/05/15 09:59:50;;;;;;;;;17.00;17.00;;;;;18.13;94.22;98979.16;6313023;20;3575257;-63
2023/05/15 10:02:31;;;;;;;;;19.50;19.00;;;;;17.75;96.20;98974.97;6282418;20;2833676;-63
2023/05/15 10:05:00;;;;;;;;;17.50;17.50;;;;;17.42;95.08;98979.25;6283348;20;2830494;-63
2023/05/15 10:07:34;;;;;;;;;22.33;22.33;;;;;17.36;96.34;98978.03;6287788;20;3578404;-63
2023/05/15 10:10:05;;;;;;;;;17.50;17.50;;;;;17.27;100.00;98979.81;6280858;20;2825353;-62
2023/05/15 10:12:35;;;;;;;;;16.50;15.00;;;;;17.22;100.00;98981.25;6281267;20;2827961;-62
2023/05/15 10:15:04;;;;;;;;;16.00;16.00;;;;;17.20;100.00;98981.44;6277610;20;2492071;-63
2023/05/15 10:17:34;;;;;;;;;23.00;21.00;;;;;17.16;100.00;98977.31;6280201;20;2840931;-62
2023/05/15 10:20:05;;;;;;;;;21.00;21.00;;;;;17.18;100.00;98979.88;6285188;20;3571130;-62
2023/05/15 10:22:37;;;;;;;;;21.00;20.50;;;;;17.46;100.00;98978.81;6278115;20;2835718;-62
2023/05/15 10:25:17;;;;;;;;;20.00;18.00;;;;;17.44;99.71;98983.53;6276921;20;2846162;-63
2023/05/15 10:27:46;;;;;;;;;20.67;20.67;;;;;17.59;100.00;98982.97;6278067;20;3558613;-62
2023/05/15 10:30:18;;;;;;;;;19.00;18.50;;;;;17.74;100.00;98982.25;6308653;20;2833650;-62
2023/05/15 10:32:48;;;;;;;;;19.33;17.67;;;;;17.83;96.51;98980.50;6285812;20;3564239;-61
2023/05/15 10:35:17;;;;;;;;;18.00;18.00;;;;;18.03;96.17;98992.00;6282551;20;3558597;-62
2023/05/15 10:37:47;;;;;;;;;15.50;15.50;;;;;17.95;96.24;98990.06;6276119;20;2819068;-60
2023/05/15 10:40:16;;;;;;;;;16.50;15.00;;;;;18.09;96.72;98985.94;6278274;20;2818286;-65
2023/05/15 10:42:46;;;;;;;;;17.50;16.00;;;;;18.19;96.24;98993.97;6277991;20;2836815;-62
2023/05/15 10:45:15;;;;;;;;;19.50;19.50;;;;;18.13;95.68;98981.88;6279954;20;2835786;-62
2023/05/15 10:47:44;;;;;;;;;26.00;22.00;;;;;18.15;95.44;98982.59;6276535;20;2845198;-63
2023/05/15 10:50:14;;;;;;;;;23.00;21.00;;;;;18.08;97.34;98984.22;6312185;20;3440993;-63
2023/05/15 10:52:42;;;;;;;;;21.50;19.00;;;;;17.78;99.55;98977.38;6304709;20;2835923;-64
2023/05/15 10:55:16;;;;;;;;;25.67;21.33;;;;;17.57;99.79;98991.28;6282118;20;3567976;-63
2023/05/15 10:57:46;;;;;;;;;23.67;22.00;;;;;17.57;99.66;98980.41;6279549;20;3574259;-63
2023/05/15 11:00:41;;;;;;;;;25.33;23.33;;;;;17.46;99.19;98984.22;6279050;20;3564994;-63
2023/05/15 11:03:34;;;;;;;;;20.67;20.67;;;;;17.60;99.32;98977.38;6282290;20;3564855;-62
2023/05/15 11:06:15;;;;;;;;;22.33;21.33;;;;;17.91;99.76;98982.41;6311354;20;3574381;-62
2023/05/15 11:08:44;;;;;;;;;21.67;20.33;;;;;17.55;99.15;98988.72;6282825;20;3564885;-62